createdAt,value
2022-08-28T00:00:41.626Z,21.37
2022-08-28T00:03:11.064Z,18.58
2022-08-28T00:05:39.558Z,18.38
2022-08-28T00:08:08.352Z,16.88
2022-08-28T00:10:35.351Z,18.00
2022-08-28T00:13:02.540Z,20.40
2022-08-28T00:15:32.954Z,17.55
2022-08-28T00:18:00.960Z,15.70
2022-08-28T00:20:29.454Z,13.52
2022-08-28T00:22:56.766Z,19.65
2022-08-28T00:25:25.669Z,19.52
2022-08-28T00:27:55.226Z,19.42
2022-08-28T00:30:27.186Z,21.25
2022-08-28T00:32:56.248Z,15.02
2022-08-28T00:35:23.778Z,14.00
2022-08-28T00:37:52.881Z,16.17
2022-08-28T00:40:30.634Z,14.38
2022-08-28T00:43:02.079Z,15.85
2022-08-28T00:45:29.761Z,14.10
2022-08-28T00:47:56.875Z,19.05
2022-08-28T00:50:27.798Z,17.00
2022-08-28T00:52:59.787Z,16.00
2022-08-28T00:55:28.159Z,18.50
2022-08-28T00:58:00.389Z,18.00
2022-08-28T01:00:29.332Z,15.95
2022-08-28T01:02:56.427Z,13.82
2022-08-28T01:05:23.860Z,19.92
2022-08-28T01:07:52.007Z,17.17
2022-08-28T01:10:23.155Z,18.13
2022-08-28T01:12:50.731Z,17.73
2022-08-28T01:15:20.094Z,16.73
2022-08-28T01:17:50.363Z,17.15
2022-08-28T01:20:22.056Z,17.88
2022-08-28T01:23:15.015Z,15.48
2022-08-28T01:25:42.615Z,14.10
2022-08-28T01:28:12.849Z,17.92
2022-08-28T01:30:42.531Z,23.48
2022-08-28T01:33:09.393Z,15.40
2022-08-28T01:35:43.381Z,14.18
2022-08-28T01:38:10.381Z,15.13
2022-08-28T01:40:40.311Z,13.05
2022-08-28T01:43:10.536Z,17.00
2022-08-28T01:45:37.686Z,14.75
2022-08-28T01:48:06.611Z,14.40
2022-08-28T01:50:34.390Z,14.40
2022-08-28T01:53:01.737Z,11.95
2022-08-28T01:55:28.848Z,12.32
2022-08-28T01:57:56.497Z,15.48
2022-08-28T02:00:27.515Z,16.25
2022-08-28T02:02:56.590Z,13.50
2022-08-28T02:05:25.517Z,11.90
2022-08-28T02:07:52.605Z,14.02
2022-08-28T02:10:24.254Z,11.70
2022-08-28T02:12:52.952Z,12.13
2022-08-28T02:15:20.001Z,19.00
2022-08-28T02:17:50.412Z,16.42
2022-08-28T02:20:17.723Z,12.65
2022-08-28T02:22:45.546Z,16.60
2022-08-28T02:25:12.640Z,14.05
2022-08-28T02:27:39.893Z,12.73
2022-08-28T02:30:09.891Z,15.60
2022-08-28T02:32:36.893Z,11.63
2022-08-28T02:35:05.560Z,13.98
2022-08-28T02:37:39.593Z,18.50
2022-08-28T02:40:07.196Z,15.40
2022-08-28T02:42:34.269Z,13.20
2022-08-28T02:45:01.462Z,13.75
2022-08-28T02:47:28.387Z,15.98
2022-08-28T02:49:55.227Z,12.88
2022-08-28T02:54:50.596Z,14.40
2022-08-28T02:57:17.593Z,11.63
2022-08-28T02:59:44.540Z,13.70
2022-08-28T03:02:11.379Z,12.30
2022-08-28T03:04:38.585Z,14.13
2022-08-28T03:07:07.443Z,13.77
2022-08-28T03:09:34.179Z,15.32
2022-08-28T03:14:27.977Z,24.25
2022-08-28T03:19:21.457Z,15.48
2022-08-28T03:21:48.200Z,22.38
2022-08-28T03:24:19.133Z,17.55
2022-08-28T03:29:13.147Z,17.17
2022-08-28T03:31:39.905Z,18.30
2022-08-28T03:36:33.928Z,15.57
2022-08-28T03:39:04.044Z,14.80
2022-08-28T03:41:31.829Z,17.63
2022-08-28T03:44:00.606Z,14.10
2022-08-28T03:46:29.488Z,23.50
2022-08-28T03:48:56.356Z,12.73
2022-08-28T03:51:29.222Z,11.18
2022-08-28T03:53:58.266Z,13.90
2022-08-28T03:56:26.635Z,15.80
2022-08-28T03:58:57.344Z,15.85
2022-08-28T04:01:24.993Z,14.50
2022-08-28T04:03:51.817Z,13.93
2022-08-28T04:06:19.659Z,18.17
2022-08-28T04:08:47.274Z,16.90
2022-08-28T04:11:14.112Z,12.50
2022-08-28T04:16:12.176Z,17.02
2022-08-28T04:18:41.839Z,14.52
2022-08-28T04:21:11.713Z,12.68
2022-08-28T04:23:40.100Z,16.50
2022-08-28T04:26:12.397Z,16.77
2022-08-28T04:28:39.609Z,14.80
2022-08-28T04:31:08.191Z,16.15
2022-08-28T04:33:35.769Z,12.65
2022-08-28T04:36:05.531Z,15.23
2022-08-28T04:38:32.434Z,16.30
2022-08-28T04:40:59.736Z,18.52
2022-08-28T04:43:26.505Z,15.10
2022-08-28T04:48:20.219Z,16.10
2022-08-28T04:55:54.629Z,16.15
2022-08-28T04:58:23.941Z,19.60
2022-08-28T05:00:53.028Z,16.08
2022-08-28T05:03:20.761Z,12.90
2022-08-28T05:05:50.277Z,14.30
2022-08-28T05:08:18.911Z,14.25
2022-08-28T05:10:46.945Z,18.50
2022-08-28T05:13:15.723Z,14.57
2022-08-28T05:15:44.674Z,17.05
2022-08-28T05:18:14.231Z,13.02
2022-08-28T05:20:44.687Z,24.27
2022-08-28T05:23:12.740Z,26.08
2022-08-28T05:25:43.168Z,19.60
2022-08-28T05:28:12.207Z,19.38
2022-08-28T05:30:40.756Z,22.15
2022-08-28T05:33:09.202Z,19.77
2022-08-28T05:35:38.750Z,17.92
2022-08-28T05:38:06.790Z,16.25
2022-08-28T05:40:34.451Z,19.02
2022-08-28T05:43:01.368Z,17.20
2022-08-28T05:47:54.967Z,18.67
2022-08-28T05:50:21.784Z,21.23
2022-08-28T05:55:15.510Z,22.20
2022-08-28T05:57:42.377Z,18.73
2022-08-28T06:00:13.346Z,18.88
2022-08-28T06:02:41.797Z,16.73
2022-08-28T06:05:09.670Z,15.00
2022-08-28T06:07:41.103Z,18.90
2022-08-28T06:10:10.479Z,15.13
2022-08-28T06:12:38.239Z,17.20
2022-08-28T06:15:05.966Z,17.98
2022-08-28T06:17:32.727Z,15.93
2022-08-28T06:19:59.556Z,14.52
2022-08-28T06:24:53.869Z,13.32
2022-08-28T06:27:20.659Z,14.73
2022-08-28T06:29:47.636Z,18.77
2022-08-28T06:32:14.563Z,14.38
2022-08-28T06:34:41.755Z,14.85
2022-08-28T06:37:09.807Z,14.90
2022-08-28T06:39:36.629Z,15.07
2022-08-28T06:42:03.698Z,11.23
2022-08-28T06:44:32.126Z,15.38
2022-08-28T06:47:00.302Z,81.18
2022-08-28T06:49:27.125Z,15.60
2022-08-28T06:51:54.134Z,15.88
2022-08-28T06:54:23.298Z,12.60
2022-08-28T06:56:51.762Z,12.60
2022-08-28T06:59:18.604Z,15.95
2022-08-28T07:01:45.497Z,19.80
2022-08-28T07:04:14.513Z,17.92
2022-08-28T07:06:46.718Z,17.15
2022-08-28T07:09:14.528Z,22.35
2022-08-28T07:11:45.420Z,28.08
2022-08-28T07:14:12.409Z,25.52
2022-08-28T07:16:39.791Z,20.90
2022-08-28T07:19:08.452Z,22.02
2022-08-28T07:21:39.494Z,26.08
2022-08-28T07:24:08.467Z,26.70
2022-08-28T07:26:35.859Z,23.92
2022-08-28T07:29:11.087Z,31.50
2022-08-28T07:31:44.297Z,24.58
2022-08-28T07:34:13.492Z,24.17
2022-08-28T07:36:41.128Z,17.13
2022-08-28T07:39:09.774Z,22.58
2022-08-28T07:41:39.335Z,19.67
2022-08-28T07:44:26.125Z,19.75
2022-08-28T07:46:54.837Z,20.27
2022-08-28T07:49:22.550Z,19.80
2022-08-28T07:51:49.484Z,23.20
2022-08-28T07:54:21.216Z,20.95
2022-08-28T07:56:47.954Z,18.95
2022-08-28T07:59:16.837Z,19.65
2022-08-28T08:01:46.517Z,20.67
2022-08-28T08:04:16.176Z,22.48
2022-08-28T08:06:44.327Z,19.55
2022-08-28T08:09:14.307Z,18.60
2022-08-28T08:11:42.378Z,17.70
2022-08-28T08:14:09.949Z,15.13
2022-08-28T08:16:39.548Z,15.25
2022-08-28T08:19:09.774Z,14.63
2022-08-28T08:21:37.442Z,14.20
2022-08-28T08:24:04.432Z,12.60
2022-08-28T08:26:31.185Z,14.88
2022-08-28T08:28:58.924Z,16.77
2022-08-28T08:31:29.440Z,15.07
2022-08-28T08:34:01.432Z,15.30
2022-08-28T08:36:30.216Z,15.43
2022-08-28T08:39:00.057Z,17.58
2022-08-28T08:41:48.660Z,15.00
2022-08-28T08:44:33.227Z,13.82
2022-08-28T08:47:07.858Z,14.40
2022-08-28T08:49:42.086Z,14.38
2022-08-28T08:52:12.020Z,16.60
2022-08-28T08:55:09.910Z,15.55
2022-08-28T08:57:38.958Z,14.85
2022-08-28T09:00:12.274Z,13.55
2022-08-28T09:02:58.632Z,15.27
2022-08-28T09:05:46.673Z,12.55
2022-08-28T09:08:33.921Z,17.83
2022-08-28T09:11:13.783Z,17.92
2022-08-28T09:14:20.641Z,15.90
2022-08-28T09:16:55.881Z,12.82
2022-08-28T09:19:22.884Z,15.43
2022-08-28T09:21:51.645Z,13.93
2022-08-28T09:24:26.621Z,14.68
2022-08-28T09:27:11.081Z,19.05
2022-08-28T09:29:47.042Z,14.95
2022-08-28T09:32:29.780Z,14.82
2022-08-28T09:35:24.475Z,15.82
2022-08-28T09:37:51.628Z,18.02
2022-08-28T09:40:51.151Z,17.45
2022-08-28T09:43:27.846Z,12.82
2022-08-28T09:46:03.000Z,13.77
2022-08-28T09:48:43.398Z,11.52
2022-08-28T09:51:22.517Z,12.57
2022-08-28T09:53:52.450Z,14.65
2022-08-28T09:56:34.258Z,13.32
2022-08-28T09:59:08.576Z,13.23
2022-08-28T10:01:45.176Z,14.85
2022-08-28T10:04:18.094Z,10.57
2022-08-28T10:07:26.799Z,12.38
2022-08-28T10:13:00.212Z,14.23
2022-08-28T10:15:43.267Z,12.23
2022-08-28T10:18:17.927Z,13.65
2022-08-28T10:21:13.008Z,10.07
2022-08-28T10:24:13.208Z,11.90
2022-08-28T10:26:55.244Z,8.63
2022-08-28T10:30:05.208Z,16.05
2022-08-28T10:32:45.546Z,9.10
2022-08-28T10:35:18.199Z,13.25
2022-08-28T10:38:16.893Z,9.02
2022-08-28T10:41:04.491Z,8.88
2022-08-28T10:43:37.493Z,7.88
2022-08-28T10:46:10.337Z,12.02
2022-08-28T10:48:46.488Z,8.52
2022-08-28T10:51:43.652Z,7.30
2022-08-28T10:57:24.767Z,8.65
2022-08-28T10:59:54.131Z,9.75
2022-08-28T11:02:25.101Z,11.13
2022-08-28T11:04:58.250Z,14.52
2022-08-28T11:07:49.487Z,8.85
2022-08-28T11:10:19.276Z,7.93
2022-08-28T11:12:48.158Z,10.20
2022-08-28T11:15:34.204Z,6.47
2022-08-28T11:18:15.886Z,9.35
2022-08-28T11:20:56.730Z,6.80
2022-08-28T11:23:41.931Z,6.75
2022-08-28T11:26:12.353Z,6.65
2022-08-28T11:28:47.241Z,7.50
2022-08-28T11:31:18.172Z,7.82
2022-08-28T11:33:58.822Z,8.23
2022-08-28T11:36:28.043Z,5.10
2022-08-28T11:38:54.874Z,6.30
2022-08-28T11:41:30.668Z,10.60
2022-08-28T11:44:09.419Z,4.88
2022-08-28T11:47:16.404Z,8.60
2022-08-28T11:49:44.620Z,7.63
2022-08-28T11:52:23.528Z,7.00
2022-08-28T11:55:22.254Z,8.32
2022-08-28T11:58:14.597Z,10.55
2022-08-28T12:01:19.546Z,4.70
2022-08-28T12:04:03.868Z,4.88
2022-08-28T12:06:52.738Z,5.75
2022-08-28T12:09:39.024Z,5.72
2022-08-28T12:12:10.799Z,5.93
2022-08-28T12:14:40.904Z,6.95
2022-08-28T12:17:20.181Z,8.05
2022-08-28T12:20:26.969Z,7.70
2022-08-28T12:22:56.811Z,6.55
2022-08-28T12:25:40.449Z,7.65
2022-08-28T12:28:29.476Z,7.82
2022-08-28T12:31:05.189Z,7.95
2022-08-28T12:33:48.397Z,7.35
2022-08-28T12:36:18.538Z,6.85
2022-08-28T12:38:53.686Z,7.32
2022-08-28T12:41:22.351Z,11.15
2022-08-28T12:43:53.437Z,6.18
2022-08-28T12:46:40.424Z,8.30
2022-08-28T12:49:30.219Z,5.82
2022-08-28T12:52:17.036Z,5.25
2022-08-28T12:54:46.264Z,5.80
2022-08-28T12:57:15.955Z,5.78
2022-08-28T12:59:45.644Z,8.63
2022-08-28T13:02:28.158Z,6.13
2022-08-28T13:04:55.607Z,8.15
2022-08-28T13:07:38.318Z,7.40
2022-08-28T13:10:20.899Z,5.95
2022-08-28T13:12:56.874Z,6.35
2022-08-28T13:15:55.167Z,7.32
2022-08-28T13:18:50.361Z,8.48
2022-08-28T13:21:32.721Z,10.63
2022-08-28T13:24:21.420Z,8.77
2022-08-28T13:26:59.165Z,7.18
2022-08-28T13:29:26.301Z,7.03
2022-08-28T13:32:00.813Z,5.28
2022-08-28T13:34:36.646Z,7.00
2022-08-28T13:37:18.522Z,6.57
2022-08-28T13:39:47.674Z,5.40
2022-08-28T13:42:16.874Z,5.53
2022-08-28T13:44:50.629Z,8.23
2022-08-28T13:47:17.693Z,5.38
2022-08-28T13:49:44.803Z,7.18
2022-08-28T13:52:12.192Z,4.60
2022-08-28T13:54:43.509Z,7.10
2022-08-28T13:57:11.030Z,5.38
2022-08-28T13:59:37.914Z,6.57
2022-08-28T14:02:25.342Z,7.43
2022-08-28T14:04:52.191Z,5.50
2022-08-28T14:07:19.050Z,7.20
2022-08-28T14:09:45.968Z,4.75
2022-08-28T14:12:12.903Z,6.55
2022-08-28T14:14:39.762Z,7.85
2022-08-28T14:17:08.601Z,5.68
2022-08-28T14:19:35.778Z,4.25
2022-08-28T14:22:02.722Z,7.65
2022-08-28T14:24:29.839Z,4.93
2022-08-28T14:26:57.114Z,5.43
2022-08-28T14:29:23.987Z,4.93
2022-08-28T14:31:51.025Z,5.32
2022-08-28T14:34:21.482Z,4.70
2022-08-28T14:36:55.012Z,5.38
2022-08-28T14:39:25.047Z,3.78
2022-08-28T14:41:53.246Z,3.45
2022-08-28T14:44:21.694Z,3.75
2022-08-28T14:46:58.122Z,3.95
2022-08-28T14:49:26.493Z,5.47
2022-08-28T14:51:54.931Z,3.92
2022-08-28T14:54:24.006Z,8.82
2022-08-28T14:56:52.468Z,6.65
2022-08-28T14:59:24.529Z,6.82
2022-08-28T15:01:53.096Z,4.72
2022-08-28T15:04:22.808Z,5.57
2022-08-28T15:06:51.169Z,4.03
2022-08-28T15:09:19.201Z,5.50
2022-08-28T15:11:46.310Z,4.45
2022-08-28T15:14:13.674Z,7.18
2022-08-28T15:16:43.552Z,4.10
2022-08-28T15:19:12.296Z,3.47
2022-08-28T15:21:44.481Z,3.92
2022-08-28T15:24:11.596Z,6.32
2022-08-28T15:26:40.046Z,3.05
2022-08-28T15:29:07.811Z,4.53
2022-08-28T15:31:37.736Z,3.38
2022-08-28T15:34:17.104Z,3.88
2022-08-28T15:36:45.841Z,5.95
2022-08-28T15:39:40.703Z,2.75
2022-08-28T15:42:09.000Z,3.75
2022-08-28T15:44:35.960Z,2.85
2022-08-28T15:47:04.952Z,6.38
2022-08-28T15:49:36.191Z,2.78
2022-08-28T15:52:11.530Z,3.85
2022-08-28T15:54:38.368Z,2.28
2022-08-28T15:57:05.370Z,2.25
2022-08-28T15:59:48.551Z,1.70
2022-08-28T16:02:16.287Z,1.60
2022-08-28T16:04:43.105Z,2.47
2022-08-28T16:07:09.913Z,1.88
2022-08-28T16:09:36.892Z,1.55
2022-08-28T16:12:04.039Z,1.73
2022-08-28T16:14:33.058Z,2.60
2022-08-28T16:17:05.994Z,1.58
2022-08-28T16:19:39.012Z,1.73
2022-08-28T16:22:06.456Z,2.67
2022-08-28T16:24:33.594Z,1.63
2022-08-28T16:27:00.489Z,1.48
2022-08-28T16:29:27.395Z,1.80
2022-08-28T16:31:54.290Z,1.77
2022-08-28T16:34:21.335Z,1.73
2022-08-28T16:36:48.420Z,1.33
2022-08-28T16:39:15.421Z,2.13
2022-08-28T16:41:46.188Z,1.85
2022-08-28T16:44:13.015Z,1.80
2022-08-28T16:46:39.906Z,2.95
2022-08-28T16:49:06.947Z,1.55
2022-08-28T16:51:33.871Z,1.48
2022-08-28T16:54:01.023Z,5.25
2022-08-28T16:56:27.794Z,1.38
2022-08-28T16:58:54.609Z,2.95
2022-08-28T17:01:24.090Z,2.28
2022-08-28T17:03:53.205Z,3.58
2022-08-28T17:06:24.052Z,2.13
2022-08-28T17:08:55.922Z,1.60
2022-08-28T17:11:27.140Z,2.90
2022-08-28T17:13:55.326Z,3.85
2022-08-28T17:16:23.610Z,1.70
2022-08-28T17:18:52.116Z,3.53
2022-08-28T17:21:39.547Z,2.67
2022-08-28T17:24:06.992Z,3.90
2022-08-28T17:26:33.923Z,1.67
2022-08-28T17:29:00.719Z,6.13
2022-08-28T17:31:27.916Z,3.75
2022-08-28T17:33:54.740Z,4.57
2022-08-28T17:36:33.512Z,15.18
2022-08-28T17:39:07.527Z,6.82
2022-08-28T17:41:35.339Z,4.95
2022-08-28T17:44:02.678Z,5.78
2022-08-28T17:46:31.861Z,2.70
2022-08-28T17:49:03.294Z,3.03
2022-08-28T17:51:43.026Z,2.40
2022-08-28T17:54:15.553Z,2.42
2022-08-28T17:56:42.501Z,2.72
2022-08-28T17:59:10.342Z,1.80
2022-08-28T18:01:38.344Z,2.53
2022-08-28T18:04:05.920Z,2.60
2022-08-28T18:06:33.016Z,2.00
2022-08-28T18:09:00.400Z,4.65
2022-08-28T18:11:28.133Z,1.70
2022-08-28T18:13:55.090Z,2.10
2022-08-28T18:16:22.003Z,3.72
2022-08-28T18:18:49.191Z,3.75
2022-08-28T18:21:16.016Z,2.83
2022-08-28T18:23:42.826Z,2.72
2022-08-28T18:26:09.832Z,3.28
2022-08-28T18:28:37.447Z,3.40
2022-08-28T18:31:06.359Z,3.67
2022-08-28T18:33:34.234Z,6.80
2022-08-28T18:36:01.934Z,4.80
2022-08-28T18:38:29.819Z,4.47
2022-08-28T18:40:59.585Z,5.03
2022-08-28T18:43:26.451Z,8.25
2022-08-28T18:45:53.589Z,5.05
2022-08-28T18:48:20.642Z,4.75
2022-08-28T18:50:48.282Z,4.82
2022-08-28T18:53:16.857Z,5.25
2022-08-28T18:55:43.813Z,4.75
2022-08-28T18:58:14.014Z,6.43
2022-08-28T19:00:42.227Z,5.28
2022-08-28T19:03:09.379Z,4.75
2022-08-28T19:05:37.952Z,5.85
2022-08-28T19:08:05.092Z,4.70
2022-08-28T19:10:34.293Z,4.40
2022-08-28T19:13:03.273Z,12.05
2022-08-28T19:15:31.118Z,5.25
2022-08-28T19:18:00.340Z,4.93
2022-08-28T19:20:28.701Z,6.38
2022-08-28T19:22:56.947Z,17.73
2022-08-28T19:25:28.632Z,5.72
2022-08-28T19:28:01.631Z,5.32
2022-08-28T19:30:33.185Z,9.32
2022-08-28T19:33:02.275Z,6.68
2022-08-28T19:35:29.267Z,6.72
2022-08-28T19:37:56.137Z,6.07
2022-08-28T19:40:23.553Z,7.50
2022-08-28T19:42:51.233Z,7.05
2022-08-28T19:45:18.310Z,6.25
2022-08-28T19:47:46.917Z,5.60
2022-08-28T19:50:14.844Z,6.13
2022-08-28T19:52:43.444Z,8.43
2022-08-28T19:55:19.305Z,8.27
2022-08-28T19:57:48.116Z,10.30
2022-08-28T20:00:18.150Z,7.10
2022-08-28T20:02:45.667Z,5.00
2022-08-28T20:05:12.642Z,12.70
2022-08-28T20:07:39.686Z,6.15
2022-08-28T20:10:07.336Z,5.35
2022-08-28T20:12:34.540Z,5.90
2022-08-28T20:15:03.656Z,9.75
2022-08-28T20:17:31.121Z,6.28
2022-08-28T20:20:02.860Z,11.93
2022-08-28T20:22:31.745Z,7.68
2022-08-28T20:24:59.878Z,10.45
2022-08-28T20:27:28.141Z,7.13
2022-08-28T20:29:54.870Z,8.43
2022-08-28T20:32:21.563Z,7.43
2022-08-28T20:34:48.446Z,7.85
2022-08-28T20:37:16.775Z,8.10
2022-08-28T20:39:43.574Z,6.70
2022-08-28T20:42:11.695Z,10.77
2022-08-28T20:44:38.410Z,12.82
2022-08-28T20:47:05.506Z,8.55
2022-08-28T20:49:32.314Z,7.68
2022-08-28T20:52:05.862Z,7.28
2022-08-28T20:54:36.889Z,9.80
2022-08-28T20:57:07.573Z,8.32
2022-08-28T20:59:39.873Z,9.85
2022-08-28T21:02:28.853Z,7.13
2022-08-28T21:04:55.949Z,5.68
2022-08-28T21:07:24.713Z,6.32
2022-08-28T21:10:06.696Z,5.90
2022-08-28T21:12:39.360Z,5.78
2022-08-28T21:15:09.313Z,8.13
2022-08-28T21:17:36.402Z,9.15
2022-08-28T21:20:12.050Z,7.15
2022-08-28T21:22:40.177Z,5.68
2022-08-28T21:25:09.009Z,15.93
2022-08-28T21:27:36.786Z,5.07
2022-08-28T21:30:05.564Z,6.53
2022-08-28T21:32:33.826Z,5.47
2022-08-28T21:35:02.169Z,5.40
2022-08-28T21:37:29.119Z,10.05
2022-08-28T21:39:56.646Z,6.05
2022-08-28T21:42:23.911Z,6.82
2022-08-28T21:44:51.978Z,6.32
2022-08-28T21:47:21.317Z,6.07
2022-08-28T21:49:50.035Z,5.28
2022-08-28T21:52:18.316Z,5.88
2022-08-28T21:54:45.157Z,7.60
2022-08-28T21:57:11.929Z,7.10
2022-08-28T21:59:38.956Z,5.15
2022-08-28T22:02:06.118Z,9.18
2022-08-28T22:04:33.033Z,6.43
2022-08-28T22:06:59.744Z,5.70
2022-08-28T22:11:53.363Z,5.50
2022-08-28T22:14:20.115Z,9.75
2022-08-28T22:19:13.713Z,5.93
2022-08-28T22:24:25.698Z,8.13
2022-08-28T22:29:25.127Z,7.18
2022-08-28T22:31:52.665Z,5.07
2022-08-28T22:34:19.822Z,12.55
2022-08-28T22:36:46.972Z,7.03
2022-08-28T22:39:13.797Z,4.65
2022-08-28T22:44:07.598Z,4.50
2022-08-28T22:46:35.192Z,4.30
2022-08-28T22:49:01.903Z,4.57
2022-08-28T22:53:55.995Z,8.82
2022-08-28T22:56:22.891Z,7.63
2022-08-28T22:58:49.622Z,11.68
2022-08-28T23:03:45.898Z,10.45
2022-08-28T23:06:13.653Z,8.07
2022-08-28T23:08:40.525Z,6.70
2022-08-28T23:11:07.859Z,5.82
2022-08-28T23:13:34.815Z,11.52
2022-08-28T23:16:02.512Z,6.68
2022-08-28T23:18:38.003Z,9.02
2022-08-28T23:21:13.301Z,7.03
2022-08-28T23:26:11.798Z,6.50
2022-08-28T23:28:39.040Z,5.25
2022-08-28T23:31:05.903Z,4.57
2022-08-28T23:33:32.675Z,6.82
2022-08-28T23:38:26.258Z,6.05
2022-08-28T23:43:19.753Z,5.13
2022-08-28T23:45:47.752Z,5.13
2022-08-28T23:48:15.255Z,8.40
2022-08-28T23:50:42.425Z,4.90
2022-08-28T23:53:10.596Z,6.72
2022-08-28T23:55:37.721Z,9.88
2022-08-28T23:58:05.349Z,8.00
